createdAt,value
2018-11-10T00:02:22.337Z,45.10
2018-11-10T00:04:50.484Z,44.87
2018-11-10T00:07:18.697Z,38.77
2018-11-10T00:09:46.877Z,43.33
2018-11-10T00:12:15.020Z,47.13
2018-11-10T00:14:43.253Z,47.60
2018-11-10T00:17:11.420Z,42.93
2018-11-10T00:19:39.547Z,50.53
2018-11-10T00:22:07.665Z,59.53
2018-11-10T00:24:35.830Z,51.90
2018-11-10T00:27:03.955Z,49.13
2018-11-10T00:29:32.107Z,46.63
2018-11-10T00:32:00.285Z,42.07
2018-11-10T00:34:28.472Z,43.23
2018-11-10T00:36:56.710Z,46.20
2018-11-10T00:39:24.878Z,48.40
2018-11-10T00:41:53.037Z,49.37
2018-11-10T00:44:21.181Z,46.13
2018-11-10T00:46:49.311Z,48.00
2018-11-10T00:49:24.051Z,45.77
2018-11-10T00:51:52.203Z,43.87
2018-11-10T00:54:20.343Z,52.67
2018-11-10T00:56:48.463Z,53.63
2018-11-10T00:59:16.619Z,54.50
2018-11-10T01:01:44.761Z,53.97
2018-11-10T01:04:12.908Z,46.40
2018-11-10T01:06:41.053Z,50.13
2018-11-10T01:09:09.692Z,49.30
2018-11-10T01:11:37.840Z,49.63
2018-11-10T01:14:06.597Z,52.13
2018-11-10T01:16:34.780Z,52.97
2018-11-10T01:19:02.924Z,48.43
2018-11-10T01:21:31.067Z,44.33
2018-11-10T01:23:59.221Z,40.17
2018-11-10T01:26:27.420Z,40.10
2018-11-10T01:28:55.600Z,47.17
2018-11-10T01:31:23.742Z,43.50
2018-11-10T01:33:51.890Z,36.60
2018-11-10T01:36:20.091Z,46.37
2018-11-10T01:38:48.228Z,45.80
2018-11-10T01:41:16.400Z,44.27
2018-11-10T01:43:44.545Z,49.43
2018-11-10T01:46:12.713Z,47.17
2018-11-10T01:48:40.987Z,45.23
2018-11-10T01:51:09.152Z,41.63
2018-11-10T01:53:37.293Z,45.00
2018-11-10T01:56:05.745Z,47.93
2018-11-10T01:58:33.889Z,48.60
2018-11-10T02:01:02.073Z,45.30
2018-11-10T02:03:30.247Z,51.00
2018-11-10T02:05:58.308Z,53.07
2018-11-10T02:08:26.481Z,49.83
2018-11-10T02:10:54.665Z,42.87
2018-11-10T02:13:22.811Z,49.47
2018-11-10T02:15:50.977Z,43.90
2018-11-10T02:18:19.120Z,41.53
2018-11-10T02:20:47.300Z,47.10
2018-11-10T02:23:15.521Z,43.90
2018-11-10T02:25:43.683Z,44.10
2018-11-10T02:28:11.812Z,45.43
2018-11-10T02:30:39.969Z,47.60
2018-11-10T02:33:08.115Z,61.47
2018-11-10T02:35:36.320Z,47.33
2018-11-10T02:38:04.612Z,54.53
2018-11-10T02:40:32.758Z,48.83
2018-11-10T02:43:00.962Z,50.90
2018-11-10T02:45:29.188Z,53.03
2018-11-10T02:47:57.355Z,46.07
2018-11-10T02:50:25.565Z,56.50
2018-11-10T02:52:53.762Z,49.30
2018-11-10T02:55:21.880Z,56.47
2018-11-10T02:57:50.048Z,52.10
2018-11-10T03:00:18.196Z,45.20
2018-11-10T03:02:46.323Z,56.60
2018-11-10T03:05:14.436Z,48.77
2018-11-10T03:07:42.582Z,53.43
2018-11-10T03:10:11.507Z,52.03
2018-11-10T03:12:40.255Z,47.13
2018-11-10T03:15:09.221Z,57.10
2018-11-10T03:17:37.784Z,50.30
2018-11-10T03:20:07.922Z,54.53
2018-11-10T03:22:36.069Z,62.40
2018-11-10T03:25:04.363Z,64.67
2018-11-10T03:27:32.505Z,49.40
2018-11-10T03:30:00.653Z,53.60
2018-11-10T03:32:28.824Z,53.13
2018-11-10T03:34:56.980Z,51.97
2018-11-10T03:37:25.180Z,48.93
2018-11-10T03:39:53.324Z,50.37
2018-11-10T03:42:21.509Z,61.33
2018-11-10T03:44:49.648Z,53.30
2018-11-10T03:47:17.781Z,50.20
2018-11-10T03:49:45.918Z,57.17
2018-11-10T03:52:13.828Z,50.43
2018-11-10T03:54:41.944Z,60.10
2018-11-10T03:57:10.077Z,55.37
2018-11-10T03:59:38.217Z,51.50
2018-11-10T04:02:06.408Z,49.27
2018-11-10T04:04:34.590Z,47.60
2018-11-10T04:07:02.804Z,45.93
2018-11-10T04:09:30.981Z,46.90
2018-11-10T04:11:59.114Z,40.93
2018-11-10T04:14:27.284Z,55.27
2018-11-10T04:16:55.595Z,58.53
2018-11-10T04:19:23.748Z,53.60
2018-11-10T04:21:51.890Z,46.27
2018-11-10T04:24:20.019Z,45.90
2018-11-10T04:26:48.146Z,46.17
2018-11-10T04:29:16.295Z,50.20
2018-11-10T04:31:44.479Z,50.90
2018-11-10T04:34:13.349Z,49.90
2018-11-10T04:36:41.538Z,44.73
2018-11-10T04:39:09.690Z,45.27
2018-11-10T04:41:37.836Z,52.63
2018-11-10T04:44:06.820Z,48.73
2018-11-10T04:46:34.978Z,44.50
2018-11-10T04:49:03.191Z,48.33
2018-11-10T04:51:31.119Z,49.17
2018-11-10T04:53:59.359Z,52.10
2018-11-10T04:56:27.565Z,51.00
2018-11-10T04:58:55.714Z,47.03
2018-11-10T05:01:23.886Z,48.47
2018-11-10T05:03:52.061Z,53.53
2018-11-10T05:06:20.181Z,47.40
2018-11-10T05:08:48.299Z,50.40
2018-11-10T05:11:16.420Z,54.03
2018-11-10T05:13:44.635Z,50.87
2018-11-10T05:16:12.782Z,56.73
2018-11-10T05:18:40.922Z,56.60
2018-11-10T05:21:09.042Z,52.97
2018-11-10T05:23:37.184Z,55.57
2018-11-10T05:26:05.338Z,56.07
2018-11-10T05:28:33.473Z,57.50
2018-11-10T05:31:01.669Z,54.87
2018-11-10T05:33:29.832Z,72.10
2018-11-10T05:35:57.975Z,57.87
2018-11-10T05:38:26.111Z,66.67
2018-11-10T05:40:54.286Z,64.27
2018-11-10T05:43:22.432Z,59.27
2018-11-10T05:45:50.601Z,70.10
2018-11-10T05:48:18.732Z,61.83
2018-11-10T05:50:46.880Z,71.33
2018-11-10T05:53:15.948Z,63.20
2018-11-10T05:55:44.159Z,70.23
2018-11-10T05:58:12.297Z,61.37
2018-11-10T06:00:40.440Z,63.13
2018-11-10T06:03:08.569Z,61.30
2018-11-10T06:05:36.711Z,65.83
2018-11-10T06:08:05.110Z,65.73
2018-11-10T06:10:33.441Z,68.90
2018-11-10T06:13:01.623Z,59.10
2018-11-10T06:15:29.780Z,78.93
2018-11-10T06:17:57.948Z,60.00
2018-11-10T06:20:26.116Z,59.10
2018-11-10T06:22:54.239Z,57.63
2018-11-10T06:25:22.372Z,66.73
2018-11-10T06:27:50.521Z,71.37
2018-11-10T06:30:18.659Z,71.90
2018-11-10T06:32:46.938Z,73.07
2018-11-10T06:35:15.042Z,73.17
2018-11-10T06:37:43.231Z,64.67
2018-11-10T06:40:12.731Z,60.13
2018-11-10T06:42:41.315Z,70.30
2018-11-10T06:45:09.470Z,55.07
2018-11-10T06:47:38.000Z,62.50
2018-11-10T06:50:07.605Z,50.03
2018-11-10T06:52:35.816Z,59.50
2018-11-10T06:55:04.460Z,66.50
2018-11-10T06:57:32.659Z,52.80
2018-11-10T07:00:00.861Z,58.93
2018-11-10T07:02:29.024Z,60.33
2018-11-10T07:04:57.188Z,61.07
2018-11-10T07:07:25.302Z,54.67
2018-11-10T07:09:53.424Z,53.30
2018-11-10T07:12:21.571Z,52.20
2018-11-10T07:14:49.684Z,52.17
2018-11-10T07:17:17.821Z,49.67
2018-11-10T07:19:45.966Z,55.80
2018-11-10T07:22:14.127Z,46.10
2018-11-10T07:24:42.254Z,53.30
2018-11-10T07:27:10.381Z,46.53
2018-11-10T07:29:38.527Z,64.80
2018-11-10T07:32:06.768Z,56.70
2018-11-10T07:34:34.832Z,61.43
2018-11-10T07:37:02.986Z,53.63
2018-11-10T07:39:30.911Z,64.83
2018-11-10T07:41:59.089Z,57.27
2018-11-10T07:44:27.289Z,59.03
2018-11-10T07:46:55.441Z,54.57
2018-11-10T07:49:23.717Z,56.60
2018-11-10T07:51:51.821Z,54.23
2018-11-10T07:54:19.963Z,60.73
2018-11-10T07:56:48.067Z,61.20
2018-11-10T07:59:16.228Z,54.73
2018-11-10T08:01:44.375Z,59.47
2018-11-10T08:04:12.569Z,56.10
2018-11-10T08:06:40.671Z,46.27
2018-11-10T08:09:09.726Z,48.53
2018-11-10T08:11:37.958Z,54.10
2018-11-10T08:14:06.143Z,51.13
2018-11-10T08:16:34.331Z,58.67
2018-11-10T08:19:02.735Z,52.37
2018-11-10T08:21:30.907Z,56.97
2018-11-10T08:23:59.163Z,43.67
2018-11-10T08:26:27.330Z,47.30
2018-11-10T08:28:55.587Z,42.63
2018-11-10T08:31:23.775Z,43.73
2018-11-10T08:33:51.839Z,44.80
2018-11-10T08:36:20.235Z,53.50
2018-11-10T08:38:48.369Z,42.27
2018-11-10T08:41:16.599Z,43.23
2018-11-10T08:43:44.715Z,47.93
2018-11-10T08:46:12.917Z,44.23
2018-11-10T08:48:41.340Z,41.37
2018-11-10T08:51:09.765Z,46.10
2018-11-10T08:53:37.864Z,43.20
2018-11-10T08:56:06.588Z,38.90
2018-11-10T08:58:34.737Z,41.57
2018-11-10T09:01:02.896Z,38.97
2018-11-10T09:03:31.086Z,43.10
2018-11-10T09:05:59.239Z,35.27
2018-11-10T09:08:27.459Z,43.97
2018-11-10T09:10:55.584Z,40.97
2018-11-10T09:13:23.768Z,37.47
2018-11-10T09:15:51.915Z,37.50
2018-11-10T09:18:20.065Z,49.53
2018-11-10T09:20:48.332Z,31.30
2018-11-10T09:23:16.645Z,43.50
2018-11-10T09:25:44.738Z,38.67
2018-11-10T09:28:12.860Z,41.30
2018-11-10T09:30:41.039Z,38.07
2018-11-10T09:33:09.158Z,34.03
2018-11-10T09:35:37.283Z,31.20
2018-11-10T09:38:06.096Z,33.43
2018-11-10T09:40:34.311Z,35.53
2018-11-10T09:43:02.500Z,39.60
2018-11-10T09:45:30.655Z,36.57
2018-11-10T09:47:58.827Z,32.63
2018-11-10T09:50:27.011Z,32.67
2018-11-10T09:52:55.286Z,29.27
2018-11-10T09:55:23.469Z,40.20
2018-11-10T09:57:51.611Z,33.53
2018-11-10T10:00:21.952Z,36.43
2018-11-10T10:02:50.587Z,33.30
2018-11-10T10:05:18.390Z,32.87
2018-11-10T10:07:46.655Z,34.67
2018-11-10T10:10:15.930Z,39.50
2018-11-10T10:12:44.535Z,34.60
2018-11-10T10:15:13.944Z,40.43
2018-11-10T10:17:43.057Z,31.60
2018-11-10T10:20:13.730Z,36.20
2018-11-10T10:22:42.088Z,38.97
2018-11-10T10:25:11.508Z,31.87
2018-11-10T10:27:39.640Z,46.43
2018-11-10T10:30:12.942Z,44.37
2018-11-10T10:32:41.152Z,30.73
2018-11-10T10:35:09.388Z,38.07
2018-11-10T10:37:37.224Z,47.03
2018-11-10T10:40:06.866Z,28.47
2018-11-10T10:42:35.268Z,28.93
2018-11-10T10:45:03.520Z,35.37
2018-11-10T10:47:32.458Z,26.73
2018-11-10T10:50:00.727Z,29.17
2018-11-10T10:52:28.871Z,26.50
2018-11-10T10:54:57.097Z,33.70
2018-11-10T10:57:25.228Z,21.50
2018-11-10T10:59:53.380Z,23.57
2018-11-10T11:02:26.979Z,30.63
2018-11-10T11:04:56.240Z,26.20
2018-11-10T11:07:25.542Z,52.53
2018-11-10T11:09:53.794Z,35.17
2018-11-10T11:12:21.969Z,25.83
2018-11-10T11:14:50.108Z,28.63
2018-11-10T11:17:18.247Z,23.83
2018-11-10T11:19:46.432Z,28.93
2018-11-10T11:22:14.569Z,35.00
2018-11-10T11:24:42.744Z,34.33
2018-11-10T11:27:10.874Z,30.73
2018-11-10T11:29:39.127Z,23.70
2018-11-10T11:32:07.252Z,34.73
2018-11-10T11:34:35.384Z,20.90
2018-11-10T11:37:03.632Z,26.37
2018-11-10T11:39:31.839Z,26.77
2018-11-10T11:41:59.956Z,25.70
2018-11-10T11:44:28.085Z,23.43
2018-11-10T11:46:56.257Z,26.90
2018-11-10T11:49:24.403Z,24.70
2018-11-10T11:51:52.551Z,21.77
2018-11-10T11:54:20.683Z,29.13
2018-11-10T11:56:48.808Z,23.13
2018-11-10T11:59:16.965Z,21.47
2018-11-10T12:01:45.096Z,21.60
2018-11-10T12:04:13.288Z,22.27
2018-11-10T12:06:41.607Z,25.20
2018-11-10T12:09:10.752Z,22.53
2018-11-10T12:11:38.940Z,22.30
2018-11-10T12:14:07.156Z,22.93
2018-11-10T12:16:35.348Z,17.90
2018-11-10T12:19:03.431Z,23.67
2018-11-10T12:21:31.601Z,25.37
2018-11-10T12:23:59.740Z,22.47
2018-11-10T12:26:27.917Z,20.30
2018-11-10T12:28:56.088Z,21.17
2018-11-10T12:31:24.334Z,18.27
2018-11-10T12:33:52.574Z,26.90
2018-11-10T12:36:20.716Z,21.43
2018-11-10T12:38:49.058Z,22.53
2018-11-10T12:41:17.149Z,23.77
2018-11-10T12:43:45.280Z,22.90
2018-11-10T12:46:13.449Z,20.87
2018-11-10T12:48:41.579Z,26.70
2018-11-10T12:51:09.730Z,18.00
2018-11-10T12:53:37.971Z,18.20
2018-11-10T12:56:06.425Z,23.50
2018-11-10T12:58:34.547Z,20.83
2018-11-10T13:01:02.730Z,18.80
2018-11-10T13:03:30.937Z,17.77
2018-11-10T13:05:58.998Z,18.50
2018-11-10T13:08:27.137Z,19.27
2018-11-10T13:10:55.303Z,21.70
2018-11-10T13:13:23.505Z,24.20
2018-11-10T13:15:51.655Z,17.63
2018-11-10T13:18:19.793Z,17.73
2018-11-10T13:20:48.015Z,16.30
2018-11-10T13:23:16.128Z,18.10
2018-11-10T13:25:44.256Z,20.80
2018-11-10T13:28:12.409Z,26.47
2018-11-10T13:30:40.612Z,19.90
2018-11-10T13:33:09.004Z,18.20
2018-11-10T13:35:37.141Z,16.33
2018-11-10T13:38:05.403Z,16.70
2018-11-10T13:40:33.545Z,18.10
2018-11-10T13:43:01.708Z,15.83
2018-11-10T13:45:29.850Z,17.23
2018-11-10T13:47:58.003Z,15.10
2018-11-10T13:50:26.199Z,16.40
2018-11-10T13:52:54.421Z,16.37
2018-11-10T13:55:22.447Z,13.03
2018-11-10T13:57:50.572Z,12.80
2018-11-10T14:00:19.269Z,17.17
2018-11-10T14:02:47.400Z,18.77
2018-11-10T14:05:15.663Z,14.37
2018-11-10T14:07:43.792Z,15.20
2018-11-10T14:10:13.144Z,14.20
2018-11-10T14:12:42.244Z,15.80
2018-11-10T14:15:10.315Z,12.43
2018-11-10T14:17:38.919Z,14.80
2018-11-10T14:20:09.067Z,15.50
2018-11-10T14:22:37.211Z,11.53
2018-11-10T14:25:07.219Z,18.87
2018-11-10T14:27:35.382Z,16.97
2018-11-10T14:30:03.841Z,10.87
2018-11-10T14:32:31.986Z,16.37
2018-11-10T14:35:00.142Z,13.20
2018-11-10T14:37:28.292Z,14.70
2018-11-10T14:39:56.449Z,15.00
2018-11-10T14:42:24.617Z,12.40
2018-11-10T14:44:52.751Z,13.97
2018-11-10T14:47:21.001Z,14.30
2018-11-10T14:49:49.212Z,13.33
2018-11-10T14:52:17.448Z,10.07
2018-11-10T14:54:45.548Z,15.53
2018-11-10T14:57:13.693Z,13.10
2018-11-10T14:59:41.895Z,13.67
2018-11-10T15:02:10.058Z,10.10
2018-11-10T15:04:38.269Z,22.77
2018-11-10T15:07:06.348Z,14.63
2018-11-10T15:09:34.509Z,14.67
2018-11-10T15:12:02.719Z,12.87
2018-11-10T15:14:30.977Z,19.83
2018-11-10T15:16:59.220Z,13.70
2018-11-10T15:19:27.384Z,12.97
2018-11-10T15:21:55.572Z,13.20
2018-11-10T15:24:23.811Z,17.00
2018-11-10T15:26:52.023Z,12.63
2018-11-10T15:29:20.212Z,16.50
2018-11-10T15:31:48.352Z,11.80
2018-11-10T15:34:16.580Z,11.47
2018-11-10T15:36:44.724Z,14.53
2018-11-10T15:39:12.906Z,13.63
2018-11-10T15:41:41.064Z,13.03
2018-11-10T15:44:09.188Z,13.07
2018-11-10T15:46:37.366Z,17.60
2018-11-10T15:49:05.580Z,15.53
2018-11-10T15:51:33.730Z,13.87
2018-11-10T15:54:01.916Z,20.60
2018-11-10T15:56:30.104Z,12.33
2018-11-10T15:58:58.309Z,12.37
2018-11-10T16:01:26.468Z,15.50
2018-11-10T16:03:54.600Z,15.23
2018-11-10T16:06:22.830Z,12.10
2018-11-10T16:08:50.956Z,13.83
2018-11-10T16:11:19.126Z,13.80
2018-11-10T16:13:47.255Z,15.03
2018-11-10T16:16:15.396Z,15.87
2018-11-10T16:18:43.704Z,15.00
2018-11-10T16:21:11.948Z,12.43
2018-11-10T16:23:40.187Z,12.10
2018-11-10T16:26:08.359Z,11.87
2018-11-10T16:28:36.655Z,11.20
2018-11-10T16:31:04.901Z,11.50
2018-11-10T16:33:33.056Z,12.10
2018-11-10T16:36:01.226Z,12.87
2018-11-10T16:38:29.458Z,19.10
2018-11-10T16:40:57.588Z,12.47
2018-11-10T16:43:25.761Z,16.73
2018-11-10T16:45:53.866Z,15.47
2018-11-10T16:48:22.125Z,22.37
2018-11-10T16:50:50.256Z,13.63
2018-11-10T16:53:18.491Z,13.10
2018-11-10T16:55:46.586Z,11.30
2018-11-10T16:58:14.775Z,14.10
2018-11-10T17:00:42.909Z,10.80
2018-11-10T17:03:11.099Z,9.77
2018-11-10T17:05:39.241Z,13.07
2018-11-10T17:08:07.394Z,14.23
2018-11-10T17:10:35.539Z,11.00
2018-11-10T17:13:03.708Z,10.53
2018-11-10T17:15:31.899Z,14.83
2018-11-10T17:18:00.070Z,9.70
2018-11-10T17:20:28.217Z,15.97
2018-11-10T17:22:56.394Z,16.43
2018-11-10T17:25:24.527Z,38.77
2018-11-10T17:27:52.694Z,14.80
2018-11-10T17:30:21.421Z,11.90
2018-11-10T17:32:49.471Z,12.57
2018-11-10T17:35:17.647Z,11.27
2018-11-10T17:37:45.966Z,10.70
2018-11-10T17:40:15.002Z,10.87
2018-11-10T17:42:43.096Z,12.67
2018-11-10T17:45:12.713Z,11.63
2018-11-10T17:47:41.370Z,12.03
2018-11-10T17:50:10.702Z,13.57
2018-11-10T17:52:39.229Z,15.40
2018-11-10T17:55:07.944Z,10.20
2018-11-10T17:57:36.081Z,10.20
2018-11-10T18:00:04.292Z,12.00
2018-11-10T18:02:32.465Z,12.17
2018-11-10T18:05:00.721Z,11.10
2018-11-10T18:07:28.933Z,12.00
2018-11-10T18:09:57.095Z,9.57
2018-11-10T18:12:25.232Z,14.17
2018-11-10T18:14:53.397Z,13.03
2018-11-10T18:17:21.546Z,10.77
2018-11-10T18:19:49.717Z,12.23
2018-11-10T18:22:17.857Z,11.40
2018-11-10T18:24:46.029Z,11.90
2018-11-10T18:27:14.240Z,13.97
2018-11-10T18:29:42.392Z,10.00
2018-11-10T18:32:10.554Z,12.10
2018-11-10T18:34:38.705Z,10.77
2018-11-10T18:37:06.990Z,14.30
2018-11-10T18:39:35.306Z,16.50
2018-11-10T18:42:03.286Z,11.00
2018-11-10T18:44:31.445Z,10.40
2018-11-10T18:46:59.572Z,11.97
2018-11-10T18:49:27.739Z,13.93
2018-11-10T18:51:55.892Z,12.60
2018-11-10T18:54:24.045Z,9.17
2018-11-10T18:56:52.335Z,16.40
2018-11-10T18:59:20.422Z,22.60
2018-11-10T19:01:48.577Z,17.60
2018-11-10T19:04:16.723Z,21.83
2018-11-10T19:06:44.904Z,17.07
2018-11-10T19:09:13.551Z,18.70
2018-11-10T19:11:41.675Z,11.30
2018-11-10T19:14:10.026Z,9.40
2018-11-10T19:16:38.178Z,10.97
2018-11-10T19:19:07.252Z,12.57
2018-11-10T19:21:35.509Z,11.20
2018-11-10T19:24:03.751Z,13.23
2018-11-10T19:26:31.874Z,10.30
2018-11-10T19:29:00.049Z,11.10
2018-11-10T19:31:28.184Z,14.10
2018-11-10T19:33:56.312Z,12.07
2018-11-10T19:36:24.483Z,9.97
2018-11-10T19:38:52.642Z,14.27
2018-11-10T19:41:20.896Z,9.20
2018-11-10T19:43:49.279Z,9.30
2018-11-10T19:46:17.437Z,10.07
2018-11-10T19:48:45.585Z,10.63
2018-11-10T19:51:15.089Z,13.43
2018-11-10T19:53:43.667Z,20.40
2018-11-10T19:56:12.187Z,14.63
2018-11-10T19:58:40.452Z,86.53
2018-11-10T20:01:09.491Z,40.20
2018-11-10T20:03:37.705Z,31.60
2018-11-10T20:06:05.848Z,25.33
2018-11-10T20:08:34.016Z,16.30
2018-11-10T20:11:02.180Z,14.90
2018-11-10T20:13:30.108Z,9.90
2018-11-10T20:15:58.732Z,12.80
2018-11-10T20:18:26.868Z,10.37
2018-11-10T20:20:55.028Z,9.30
2018-11-10T20:23:23.183Z,9.70
2018-11-10T20:25:51.328Z,10.07
2018-11-10T20:28:19.477Z,9.17
2018-11-10T20:30:47.641Z,7.07
2018-11-10T20:33:15.791Z,7.87
2018-11-10T20:35:43.964Z,8.20
2018-11-10T20:38:12.121Z,7.90
2018-11-10T20:40:40.244Z,5.87
2018-11-10T20:43:08.391Z,7.73
2018-11-10T20:45:36.548Z,8.80
2018-11-10T20:48:04.928Z,7.07
2018-11-10T20:50:33.576Z,6.47
2018-11-10T20:53:01.733Z,6.40
2018-11-10T20:55:29.875Z,7.87
2018-11-10T20:57:57.999Z,5.20
2018-11-10T21:00:26.180Z,6.17
2018-11-10T21:02:54.284Z,6.67
2018-11-10T21:05:22.468Z,5.63
2018-11-10T21:07:50.644Z,7.50
2018-11-10T21:10:19.943Z,5.10
2018-11-10T21:12:48.979Z,3.53
2018-11-10T21:15:17.750Z,5.60
2018-11-10T21:17:46.118Z,3.80
2018-11-10T21:20:14.278Z,2.97
2018-11-10T21:22:42.749Z,4.20
2018-11-10T21:25:12.561Z,3.07
2018-11-10T21:27:41.046Z,2.47
2018-11-10T21:30:10.538Z,4.70
2018-11-10T21:32:38.614Z,16.60
2018-11-10T21:35:07.535Z,5.90
2018-11-10T21:37:35.663Z,5.30
2018-11-10T21:40:04.312Z,2.77
2018-11-10T21:42:32.448Z,3.27
2018-11-10T21:45:00.622Z,2.93
2018-11-10T21:47:28.791Z,4.73
2018-11-10T21:49:56.912Z,3.57
2018-11-10T21:52:25.053Z,6.17
2018-11-10T21:54:53.186Z,4.47
2018-11-10T21:57:21.337Z,4.90
2018-11-10T21:59:49.611Z,5.90
2018-11-10T22:02:17.826Z,3.37
2018-11-10T22:04:46.764Z,6.37
2018-11-10T22:07:14.910Z,4.70
2018-11-10T22:09:43.059Z,8.03
2018-11-10T22:12:11.169Z,3.80
2018-11-10T22:14:39.324Z,4.47
2018-11-10T22:17:07.463Z,5.00
2018-11-10T22:19:35.644Z,5.53
2018-11-10T22:22:04.145Z,4.27
2018-11-10T22:24:32.274Z,7.40
2018-11-10T22:27:00.488Z,7.60
2018-11-10T22:29:28.660Z,6.30
2018-11-10T22:31:56.852Z,8.17
2018-11-10T22:34:24.968Z,7.60
2018-11-10T22:36:53.182Z,10.90
2018-11-10T22:39:21.304Z,11.90
2018-11-10T22:41:49.456Z,8.43
2018-11-10T22:44:17.580Z,13.00
2018-11-10T22:46:45.841Z,10.13
2018-11-10T22:49:14.555Z,8.97
2018-11-10T22:51:42.680Z,9.83
2018-11-10T22:54:10.832Z,11.97
2018-11-10T22:56:38.957Z,8.67
2018-11-10T22:59:07.075Z,8.07
2018-11-10T23:01:35.240Z,10.57
2018-11-10T23:04:03.391Z,8.57
2018-11-10T23:06:31.552Z,8.70
2018-11-10T23:08:59.716Z,10.20
2018-11-10T23:11:27.849Z,13.53
2018-11-10T23:13:56.012Z,11.83
2018-11-10T23:16:24.156Z,10.83
2018-11-10T23:18:52.283Z,12.57
2018-11-10T23:21:20.472Z,13.07
2018-11-10T23:23:48.617Z,20.33
2018-11-10T23:26:16.776Z,11.97
2018-11-10T23:28:44.903Z,9.00
2018-11-10T23:31:13.050Z,12.90
2018-11-10T23:33:41.180Z,10.83
2018-11-10T23:36:09.312Z,8.60
2018-11-10T23:38:37.464Z,8.40
2018-11-10T23:41:05.987Z,6.43
2018-11-10T23:43:34.147Z,4.87
2018-11-10T23:46:02.322Z,5.70
2018-11-10T23:48:30.459Z,7.97
2018-11-10T23:50:58.603Z,5.00
2018-11-10T23:53:26.768Z,7.40
2018-11-10T23:55:54.935Z,5.50
2018-11-10T23:58:23.081Z,5.77
